sensor_id;sensor_type;location;lat;lon;timestamp;temperature;humidity
76787;DHT22;65739;51.482;5.702;2023-11-21T00:00:14;7.30;99.90
76787;DHT22;65739;51.482;5.702;2023-11-21T00:02:44;7.40;99.90
76787;DHT22;65739;51.482;5.702;2023-11-21T00:05:12;7.40;99.90
76787;DHT22;65739;51.482;5.702;2023-11-21T00:07:40;7.40;99.90
76787;DHT22;65739;51.482;5.702;2023-11-21T00:10:11;7.40;99.90
76787;DHT22;65739;51.482;5.702;2023-11-21T00:12:44;7.40;99.90
76787;DHT22;65739;51.482;5.702;2023-11-21T00:15:10;7.40;99.90
76787;DHT22;65739;51.482;5.702;2023-11-21T00:17:38;7.40;99.90
76787;DHT22;65739;51.482;5.702;2023-11-21T00:20:06;7.40;99.90
76787;DHT22;65739;51.482;5.702;2023-11-21T00:22:35;7.40;99.90
76787;DHT22;65739;51.482;5.702;2023-11-21T00:25:07;7.50;99.90
76787;DHT22;65739;51.482;5.702;2023-11-21T00:27:35;7.50;99.90
76787;DHT22;65739;51.482;5.702;2023-11-21T00:30:01;7.50;99.90
76787;DHT22;65739;51.482;5.702;2023-11-21T00:32:27;7.50;99.90
76787;DHT22;65739;51.482;5.702;2023-11-21T00:34:52;7.40;99.90
76787;DHT22;65739;51.482;5.702;2023-11-21T00:37:20;7.40;99.90
76787;DHT22;65739;51.482;5.702;2023-11-21T00:39:45;7.40;99.90
76787;DHT22;65739;51.482;5.702;2023-11-21T00:42:11;7.50;99.90
76787;DHT22;65739;51.482;5.702;2023-11-21T00:44:40;7.40;99.90
76787;DHT22;65739;51.482;5.702;2023-11-21T00:47:15;7.40;99.90
76787;DHT22;65739;51.482;5.702;2023-11-21T00:49:41;7.40;99.90
76787;DHT22;65739;51.482;5.702;2023-11-21T00:52:07;7.40;99.90
76787;DHT22;65739;51.482;5.702;2023-11-21T00:54:35;7.40;99.90
76787;DHT22;65739;51.482;5.702;2023-11-21T00:57:01;7.30;99.90
76787;DHT22;65739;51.482;5.702;2023-11-21T00:59:27;7.30;99.90
76787;DHT22;65739;51.482;5.702;2023-11-21T01:01:52;7.20;99.90
76787;DHT22;65739;51.482;5.702;2023-11-21T01:04:19;7.10;99.90
76787;DHT22;65739;51.482;5.702;2023-11-21T01:06:45;7.10;99.90
76787;DHT22;65739;51.482;5.702;2023-11-21T01:09:32;6.90;99.90
76787;DHT22;65739;51.482;5.702;2023-11-21T01:12:08;6.90;99.90
76787;DHT22;65739;51.482;5.702;2023-11-21T01:14:37;6.80;99.90
76787;DHT22;65739;51.482;5.702;2023-11-21T01:17:05;6.70;99.90
76787;DHT22;65739;51.482;5.702;2023-11-21T01:19:31;6.70;99.90
76787;DHT22;65739;51.482;5.702;2023-11-21T01:21:56;6.60;99.90
76787;DHT22;65739;51.482;5.702;2023-11-21T01:24:23;6.60;99.90
76787;DHT22;65739;51.482;5.702;2023-11-21T01:26:49;6.60;99.90
76787;DHT22;65739;51.482;5.702;2023-11-21T01:29:14;6.60;99.90
76787;DHT22;65739;51.482;5.702;2023-11-21T01:31:40;6.60;99.90
76787;DHT22;65739;51.482;5.702;2023-11-21T01:34:07;6.60;99.90
76787;DHT22;65739;51.482;5.702;2023-11-21T01:36:33;6.60;99.90
76787;DHT22;65739;51.482;5.702;2023-11-21T01:38:59;6.70;99.90
76787;DHT22;65739;51.482;5.702;2023-11-21T01:41:26;6.60;99.90
76787;DHT22;65739;51.482;5.702;2023-11-21T01:43:52;6.60;99.90
76787;DHT22;65739;51.482;5.702;2023-11-21T01:46:19;6.60;99.90
76787;DHT22;65739;51.482;5.702;2023-11-21T01:48:46;6.70;99.90
76787;DHT22;65739;51.482;5.702;2023-11-21T01:51:16;6.60;99.90
76787;DHT22;65739;51.482;5.702;2023-11-21T01:53:44;6.70;99.90
76787;DHT22;65739;51.482;5.702;2023-11-21T01:56:12;6.70;99.90
76787;DHT22;65739;51.482;5.702;2023-11-21T01:58:39;6.70;99.90
76787;DHT22;65739;51.482;5.702;2023-11-21T02:01:05;6.70;99.90
76787;DHT22;65739;51.482;5.702;2023-11-21T02:03:30;6.80;99.90
76787;DHT22;65739;51.482;5.702;2023-11-21T02:05:56;6.80;99.90
76787;DHT22;65739;51.482;5.702;2023-11-21T02:08:28;6.80;99.90
76787;DHT22;65739;51.482;5.702;2023-11-21T02:10:59;6.90;99.90
76787;DHT22;65739;51.482;5.702;2023-11-21T02:13:25;6.90;99.90
76787;DHT22;65739;51.482;5.702;2023-11-21T02:15:54;6.90;99.90
76787;DHT22;65739;51.482;5.702;2023-11-21T02:18:44;6.90;99.90
76787;DHT22;65739;51.482;5.702;2023-11-21T02:21:14;6.90;99.90
76787;DHT22;65739;51.482;5.702;2023-11-21T02:23:43;7.00;99.90
76787;DHT22;65739;51.482;5.702;2023-11-21T02:26:14;7.00;99.90
76787;DHT22;65739;51.482;5.702;2023-11-21T02:28:46;7.10;99.90
76787;DHT22;65739;51.482;5.702;2023-11-21T02:31:11;7.10;99.90
76787;DHT22;65739;51.482;5.702;2023-11-21T02:33:38;7.10;99.90
76787;DHT22;65739;51.482;5.702;2023-11-21T02:36:06;7.20;99.90
76787;DHT22;65739;51.482;5.702;2023-11-21T02:38:32;7.20;99.90
76787;DHT22;65739;51.482;5.702;2023-11-21T02:40:58;7.20;99.90
76787;DHT22;65739;51.482;5.702;2023-11-21T02:43:26;7.20;99.90
76787;DHT22;65739;51.482;5.702;2023-11-21T02:45:52;7.20;99.90
76787;DHT22;65739;51.482;5.702;2023-11-21T02:48:23;7.20;99.90
76787;DHT22;65739;51.482;5.702;2023-11-21T02:50:51;7.20;99.90
76787;DHT22;65739;51.482;5.702;2023-11-21T02:53:18;7.20;99.90
76787;DHT22;65739;51.482;5.702;2023-11-21T02:55:44;7.20;99.90
76787;DHT22;65739;51.482;5.702;2023-11-21T02:58:10;7.20;99.90
76787;DHT22;65739;51.482;5.702;2023-11-21T03:00:35;7.20;99.90
76787;DHT22;65739;51.482;5.702;2023-11-21T03:03:01;7.20;99.90
76787;DHT22;65739;51.482;5.702;2023-11-21T03:05:27;7.10;99.90
76787;DHT22;65739;51.482;5.702;2023-11-21T03:07:54;7.10;99.90
76787;DHT22;65739;51.482;5.702;2023-11-21T03:10:19;7.20;99.90
76787;DHT22;65739;51.482;5.702;2023-11-21T03:12:45;7.10;99.90
76787;DHT22;65739;51.482;5.702;2023-11-21T03:15:11;7.10;99.90
76787;DHT22;65739;51.482;5.702;2023-11-21T03:17:36;7.10;99.90
76787;DHT22;65739;51.482;5.702;2023-11-21T03:20:03;7.10;99.90
76787;DHT22;65739;51.482;5.702;2023-11-21T03:22:29;7.20;99.90
76787;DHT22;65739;51.482;5.702;2023-11-21T03:24:55;7.10;99.90
76787;DHT22;65739;51.482;5.702;2023-11-21T03:27:20;7.10;99.90
76787;DHT22;65739;51.482;5.702;2023-11-21T03:29:46;7.10;99.90
76787;DHT22;65739;51.482;5.702;2023-11-21T03:32:13;7.10;99.90
76787;DHT22;65739;51.482;5.702;2023-11-21T03:34:56;7.10;99.90
76787;DHT22;65739;51.482;5.702;2023-11-21T03:37:28;7.10;99.90
76787;DHT22;65739;51.482;5.702;2023-11-21T03:39:54;7.10;99.90
76787;DHT22;65739;51.482;5.702;2023-11-21T03:42:20;7.10;99.90
76787;DHT22;65739;51.482;5.702;2023-11-21T03:44:46;7.10;99.90
76787;DHT22;65739;51.482;5.702;2023-11-21T03:47:11;7.10;99.90
76787;DHT22;65739;51.482;5.702;2023-11-21T03:49:37;7.10;99.90
76787;DHT22;65739;51.482;5.702;2023-11-21T03:52:03;7.10;99.90
76787;DHT22;65739;51.482;5.702;2023-11-21T03:54:29;7.00;99.90
76787;DHT22;65739;51.482;5.702;2023-11-21T03:56:55;7.00;99.90
76787;DHT22;65739;51.482;5.702;2023-11-21T03:59:20;7.00;99.90
76787;DHT22;65739;51.482;5.702;2023-11-21T04:01:46;7.10;99.90
76787;DHT22;65739;51.482;5.702;2023-11-21T04:04:12;7.00;99.90
76787;DHT22;65739;51.482;5.702;2023-11-21T04:06:38;7.00;99.90
76787;DHT22;65739;51.482;5.702;2023-11-21T04:09:04;7.00;99.90
76787;DHT22;65739;51.482;5.702;2023-11-21T04:11:32;7.00;99.90
76787;DHT22;65739;51.482;5.702;2023-11-21T04:13:58;7.00;99.90
76787;DHT22;65739;51.482;5.702;2023-11-21T04:16:24;6.90;99.90
76787;DHT22;65739;51.482;5.702;2023-11-21T04:18:49;7.00;99.90
76787;DHT22;65739;51.482;5.702;2023-11-21T04:21:15;6.90;99.90
76787;DHT22;65739;51.482;5.702;2023-11-21T04:23:41;6.90;99.90
76787;DHT22;65739;51.482;5.702;2023-11-21T04:26:07;6.90;99.90
76787;DHT22;65739;51.482;5.702;2023-11-21T04:28:33;6.90;99.90
76787;DHT22;65739;51.482;5.702;2023-11-21T04:30:58;6.90;99.90
76787;DHT22;65739;51.482;5.702;2023-11-21T04:33:24;6.90;99.90
76787;DHT22;65739;51.482;5.702;2023-11-21T04:35:51;6.90;99.90
76787;DHT22;65739;51.482;5.702;2023-11-21T04:38:16;6.90;99.90
76787;DHT22;65739;51.482;5.702;2023-11-21T04:40:42;6.90;99.90
76787;DHT22;65739;51.482;5.702;2023-11-21T04:43:08;6.90;99.90
76787;DHT22;65739;51.482;5.702;2023-11-21T04:45:34;6.90;99.90
76787;DHT22;65739;51.482;5.702;2023-11-21T04:48:00;6.90;99.90
76787;DHT22;65739;51.482;5.702;2023-11-21T04:50:31;6.90;99.90
76787;DHT22;65739;51.482;5.702;2023-11-21T04:52:57;6.90;99.90
76787;DHT22;65739;51.482;5.702;2023-11-21T04:55:23;6.90;99.90
76787;DHT22;65739;51.482;5.702;2023-11-21T04:57:49;6.90;99.90
76787;DHT22;65739;51.482;5.702;2023-11-21T05:00:20;6.90;99.90
76787;DHT22;65739;51.482;5.702;2023-11-21T05:02:46;6.80;99.90
76787;DHT22;65739;51.482;5.702;2023-11-21T05:05:42;6.80;99.90
76787;DHT22;65739;51.482;5.702;2023-11-21T05:08:07;6.80;99.90
76787;DHT22;65739;51.482;5.702;2023-11-21T05:10:33;6.90;99.90
76787;DHT22;65739;51.482;5.702;2023-11-21T05:12:59;6.90;99.90
76787;DHT22;65739;51.482;5.702;2023-11-21T05:15:25;6.90;99.90
76787;DHT22;65739;51.482;5.702;2023-11-21T05:18:04;6.90;99.90
76787;DHT22;65739;51.482;5.702;2023-11-21T05:20:33;6.90;99.90
76787;DHT22;65739;51.482;5.702;2023-11-21T05:22:59;6.90;99.90
76787;DHT22;65739;51.482;5.702;2023-11-21T05:25:27;6.90;99.90
76787;DHT22;65739;51.482;5.702;2023-11-21T05:27:53;6.90;99.90
76787;DHT22;65739;51.482;5.702;2023-11-21T05:30:21;6.90;99.90
76787;DHT22;65739;51.482;5.702;2023-11-21T05:32:46;7.00;99.90
76787;DHT22;65739;51.482;5.702;2023-11-21T05:35:12;6.90;99.90
76787;DHT22;65739;51.482;5.702;2023-11-21T05:37:40;6.90;99.90
76787;DHT22;65739;51.482;5.702;2023-11-21T05:40:07;6.80;99.90
76787;DHT22;65739;51.482;5.702;2023-11-21T05:42:34;6.80;99.90
76787;DHT22;65739;51.482;5.702;2023-11-21T05:45:00;6.90;99.90
76787;DHT22;65739;51.482;5.702;2023-11-21T05:47:43;6.90;99.90
76787;DHT22;65739;51.482;5.702;2023-11-21T05:50:10;7.00;99.90
76787;DHT22;65739;51.482;5.702;2023-11-21T05:52:43;6.90;99.90
76787;DHT22;65739;51.482;5.702;2023-11-21T05:55:09;6.90;99.90
76787;DHT22;65739;51.482;5.702;2023-11-21T05:57:36;6.90;99.90
76787;DHT22;65739;51.482;5.702;2023-11-21T06:00:12;6.90;99.90
76787;DHT22;65739;51.482;5.702;2023-11-21T06:02:46;6.80;99.90
76787;DHT22;65739;51.482;5.702;2023-11-21T06:05:13;6.80;99.90
76787;DHT22;65739;51.482;5.702;2023-11-21T06:07:39;6.80;99.90
76787;DHT22;65739;51.482;5.702;2023-11-21T06:10:06;6.80;99.90
76787;DHT22;65739;51.482;5.702;2023-11-21T06:12:34;6.90;99.90
76787;DHT22;65739;51.482;5.702;2023-11-21T06:15:02;6.90;99.90
76787;DHT22;65739;51.482;5.702;2023-11-21T06:17:33;6.90;99.90
76787;DHT22;65739;51.482;5.702;2023-11-21T06:20:02;6.90;99.90
76787;DHT22;65739;51.482;5.702;2023-11-21T06:22:38;6.90;99.90
76787;DHT22;65739;51.482;5.702;2023-11-21T06:25:04;6.90;99.90
76787;DHT22;65739;51.482;5.702;2023-11-21T06:27:32;6.90;99.90
76787;DHT22;65739;51.482;5.702;2023-11-21T06:29:58;7.00;99.90
76787;DHT22;65739;51.482;5.702;2023-11-21T06:32:24;6.90;99.90
76787;DHT22;65739;51.482;5.702;2023-11-21T06:34:49;6.90;99.90
76787;DHT22;65739;51.482;5.702;2023-11-21T06:37:18;6.90;99.90
76787;DHT22;65739;51.482;5.702;2023-11-21T06:39:46;6.90;99.90
76787;DHT22;65739;51.482;5.702;2023-11-21T06:42:12;7.00;99.90
76787;DHT22;65739;51.482;5.702;2023-11-21T06:44:38;7.00;99.90
76787;DHT22;65739;51.482;5.702;2023-11-21T06:47:04;7.00;99.90
76787;DHT22;65739;51.482;5.702;2023-11-21T06:49:30;7.10;99.90
76787;DHT22;65739;51.482;5.702;2023-11-21T06:51:56;7.00;99.90
76787;DHT22;65739;51.482;5.702;2023-11-21T06:54:22;7.10;99.90
76787;DHT22;65739;51.482;5.702;2023-11-21T06:56:57;7.10;99.90
76787;DHT22;65739;51.482;5.702;2023-11-21T06:59:23;7.20;99.90
76787;DHT22;65739;51.482;5.702;2023-11-21T07:01:51;7.20;99.90
76787;DHT22;65739;51.482;5.702;2023-11-21T07:04:17;7.10;99.90
76787;DHT22;65739;51.482;5.702;2023-11-21T07:06:44;7.20;99.90
76787;DHT22;65739;51.482;5.702;2023-11-21T07:09:09;7.20;99.90
76787;DHT22;65739;51.482;5.702;2023-11-21T07:11:37;7.20;99.90
76787;DHT22;65739;51.482;5.702;2023-11-21T07:14:06;7.20;99.90
76787;DHT22;65739;51.482;5.702;2023-11-21T07:16:36;7.20;99.90
76787;DHT22;65739;51.482;5.702;2023-11-21T07:19:09;7.30;99.90
76787;DHT22;65739;51.482;5.702;2023-11-21T07:21:44;7.30;99.90
76787;DHT22;65739;51.482;5.702;2023-11-21T07:24:10;7.30;99.90
76787;DHT22;65739;51.482;5.702;2023-11-21T07:26:45;7.30;99.90
76787;DHT22;65739;51.482;5.702;2023-11-21T07:29:11;7.40;99.90
76787;DHT22;65739;51.482;5.702;2023-11-21T07:31:37;7.40;99.90
76787;DHT22;65739;51.482;5.702;2023-11-21T07:34:04;7.40;99.90
76787;DHT22;65739;51.482;5.702;2023-11-21T07:36:29;7.30;99.90
76787;DHT22;65739;51.482;5.702;2023-11-21T07:38:55;7.40;99.90
76787;DHT22;65739;51.482;5.702;2023-11-21T07:41:21;7.40;99.90
76787;DHT22;65739;51.482;5.702;2023-11-21T07:43:47;7.50;99.90
76787;DHT22;65739;51.482;5.702;2023-11-21T07:46:13;7.40;99.90
76787;DHT22;65739;51.482;5.702;2023-11-21T07:48:40;7.50;99.90
76787;DHT22;65739;51.482;5.702;2023-11-21T07:51:08;7.50;99.90
76787;DHT22;65739;51.482;5.702;2023-11-21T07:53:34;7.50;99.90
76787;DHT22;65739;51.482;5.702;2023-11-21T07:56:15;7.50;99.90
76787;DHT22;65739;51.482;5.702;2023-11-21T07:58:40;7.50;99.90
76787;DHT22;65739;51.482;5.702;2023-11-21T08:01:06;7.50;99.90
76787;DHT22;65739;51.482;5.702;2023-11-21T08:03:33;7.60;99.90
76787;DHT22;65739;51.482;5.702;2023-11-21T08:05:59;7.70;99.90
76787;DHT22;65739;51.482;5.702;2023-11-21T08:08:25;7.60;99.90
76787;DHT22;65739;51.482;5.702;2023-11-21T08:10:51;7.60;99.90
76787;DHT22;65739;51.482;5.702;2023-11-21T08:13:27;7.60;99.90
76787;DHT22;65739;51.482;5.702;2023-11-21T08:15:57;7.70;99.90
76787;DHT22;65739;51.482;5.702;2023-11-21T08:18:29;7.70;99.90
76787;DHT22;65739;51.482;5.702;2023-11-21T08:20:58;7.70;99.90
76787;DHT22;65739;51.482;5.702;2023-11-21T08:23:23;7.80;99.90
76787;DHT22;65739;51.482;5.702;2023-11-21T08:25:53;7.80;99.90
76787;DHT22;65739;51.482;5.702;2023-11-21T08:28:18;7.80;99.90
76787;DHT22;65739;51.482;5.702;2023-11-21T08:30:44;7.90;99.90
76787;DHT22;65739;51.482;5.702;2023-11-21T08:33:10;7.90;99.90
76787;DHT22;65739;51.482;5.702;2023-11-21T08:35:38;8.00;99.90
76787;DHT22;65739;51.482;5.702;2023-11-21T08:38:04;7.90;99.90
76787;DHT22;65739;51.482;5.702;2023-11-21T08:40:30;7.90;99.90
76787;DHT22;65739;51.482;5.702;2023-11-21T08:42:56;7.90;99.90
76787;DHT22;65739;51.482;5.702;2023-11-21T08:45:27;7.90;99.90
76787;DHT22;65739;51.482;5.702;2023-11-21T08:47:53;8.00;99.90
76787;DHT22;65739;51.482;5.702;2023-11-21T08:50:18;8.00;99.90
76787;DHT22;65739;51.482;5.702;2023-11-21T08:52:45;8.00;99.90
76787;DHT22;65739;51.482;5.702;2023-11-21T08:55:14;8.10;99.90
76787;DHT22;65739;51.482;5.702;2023-11-21T08:57:40;8.10;99.90
76787;DHT22;65739;51.482;5.702;2023-11-21T09:00:07;8.20;99.90
76787;DHT22;65739;51.482;5.702;2023-11-21T09:02:40;8.30;99.90
76787;DHT22;65739;51.482;5.702;2023-11-21T09:05:12;8.40;99.90
76787;DHT22;65739;51.482;5.702;2023-11-21T09:07:39;8.30;99.90
76787;DHT22;65739;51.482;5.702;2023-11-21T09:10:06;8.30;99.90
76787;DHT22;65739;51.482;5.702;2023-11-21T09:12:36;8.40;99.90
76787;DHT22;65739;51.482;5.702;2023-11-21T09:15:04;8.30;99.90
76787;DHT22;65739;51.482;5.702;2023-11-21T09:17:31;8.30;99.90
76787;DHT22;65739;51.482;5.702;2023-11-21T09:19:56;8.30;99.90
76787;DHT22;65739;51.482;5.702;2023-11-21T09:22:22;8.30;99.90
76787;DHT22;65739;51.482;5.702;2023-11-21T09:24:50;8.30;99.90
76787;DHT22;65739;51.482;5.702;2023-11-21T09:27:16;8.40;99.90
76787;DHT22;65739;51.482;5.702;2023-11-21T09:29:43;8.40;99.90
76787;DHT22;65739;51.482;5.702;2023-11-21T09:32:08;8.40;99.90
76787;DHT22;65739;51.482;5.702;2023-11-21T09:34:37;8.50;99.90
76787;DHT22;65739;51.482;5.702;2023-11-21T09:37:04;8.70;99.90
76787;DHT22;65739;51.482;5.702;2023-11-21T09:39:32;8.70;99.90
76787;DHT22;65739;51.482;5.702;2023-11-21T09:47:17;8.70;99.90
76787;DHT22;65739;51.482;5.702;2023-11-21T09:49:49;8.80;99.90
76787;DHT22;65739;51.482;5.702;2023-11-21T09:52:24;8.80;99.90
76787;DHT22;65739;51.482;5.702;2023-11-21T09:54:51;8.90;99.90
76787;DHT22;65739;51.482;5.702;2023-11-21T09:57:23;9.00;99.90
76787;DHT22;65739;51.482;5.702;2023-11-21T09:59:53;9.00;99.90
76787;DHT22;65739;51.482;5.702;2023-11-21T10:02:24;8.80;99.90
76787;DHT22;65739;51.482;5.702;2023-11-21T10:04:51;8.90;99.90
76787;DHT22;65739;51.482;5.702;2023-11-21T10:07:19;9.00;99.90
76787;DHT22;65739;51.482;5.702;2023-11-21T10:09:46;9.00;99.90
76787;DHT22;65739;51.482;5.702;2023-11-21T10:12:14;9.10;99.90
76787;DHT22;65739;51.482;5.702;2023-11-21T10:14:41;9.10;99.90
76787;DHT22;65739;51.482;5.702;2023-11-21T10:17:09;9.00;99.90
76787;DHT22;65739;51.482;5.702;2023-11-21T10:19:38;9.10;99.90
76787;DHT22;65739;51.482;5.702;2023-11-21T10:22:04;9.20;99.90
76787;DHT22;65739;51.482;5.702;2023-11-21T10:24:32;9.20;99.90
76787;DHT22;65739;51.482;5.702;2023-11-21T10:26:58;9.30;99.90
76787;DHT22;65739;51.482;5.702;2023-11-21T10:29:23;9.40;99.90
76787;DHT22;65739;51.482;5.702;2023-11-21T10:31:50;9.40;99.90
76787;DHT22;65739;51.482;5.702;2023-11-21T10:34:18;9.40;99.90
76787;DHT22;65739;51.482;5.702;2023-11-21T10:36:44;9.40;99.90
76787;DHT22;65739;51.482;5.702;2023-11-21T10:39:20;9.40;99.90
76787;DHT22;65739;51.482;5.702;2023-11-21T10:41:47;9.60;99.90
76787;DHT22;65739;51.482;5.702;2023-11-21T10:44:16;9.60;99.90
76787;DHT22;65739;51.482;5.702;2023-11-21T10:46:48;9.60;99.90
76787;DHT22;65739;51.482;5.702;2023-11-21T10:49:20;9.50;99.90
76787;DHT22;65739;51.482;5.702;2023-11-21T10:51:45;9.50;99.90
76787;DHT22;65739;51.482;5.702;2023-11-21T10:54:17;9.50;99.90
76787;DHT22;65739;51.482;5.702;2023-11-21T10:56:43;9.50;99.90
76787;DHT22;65739;51.482;5.702;2023-11-21T10:59:12;9.60;99.90
76787;DHT22;65739;51.482;5.702;2023-11-21T11:01:45;9.80;99.90
76787;DHT22;65739;51.482;5.702;2023-11-21T11:04:14;9.80;99.90
76787;DHT22;65739;51.482;5.702;2023-11-21T11:06:50;9.90;99.90
76787;DHT22;65739;51.482;5.702;2023-11-21T11:09:17;9.80;99.90
76787;DHT22;65739;51.482;5.702;2023-11-21T11:11:43;9.70;99.90
76787;DHT22;65739;51.482;5.702;2023-11-21T11:14:12;9.80;99.90
76787;DHT22;65739;51.482;5.702;2023-11-21T11:16:41;9.80;99.90
76787;DHT22;65739;51.482;5.702;2023-11-21T11:19:08;9.80;99.90
76787;DHT22;65739;51.482;5.702;2023-11-21T11:21:40;9.80;99.90
76787;DHT22;65739;51.482;5.702;2023-11-21T11:24:53;9.80;99.90
76787;DHT22;65739;51.482;5.702;2023-11-21T11:27:59;9.90;99.90
76787;DHT22;65739;51.482;5.702;2023-11-21T11:30:41;9.90;99.90
76787;DHT22;65739;51.482;5.702;2023-11-21T11:36:02;10.00;99.90
76787;DHT22;65739;51.482;5.702;2023-11-21T11:38:33;10.00;99.90
76787;DHT22;65739;51.482;5.702;2023-11-21T11:41:05;10.00;99.90
76787;DHT22;65739;51.482;5.702;2023-11-21T11:43:31;10.00;99.90
76787;DHT22;65739;51.482;5.702;2023-11-21T11:46:10;10.00;99.90
76787;DHT22;65739;51.482;5.702;2023-11-21T11:48:39;10.00;99.90
76787;DHT22;65739;51.482;5.702;2023-11-21T11:51:09;9.90;99.90
76787;DHT22;65739;51.482;5.702;2023-11-21T11:53:39;9.90;99.90
76787;DHT22;65739;51.482;5.702;2023-11-21T11:58:55;9.90;99.90
76787;DHT22;65739;51.482;5.702;2023-11-21T12:01:22;10.10;99.90
76787;DHT22;65739;51.482;5.702;2023-11-21T12:06:58;10.30;99.90
76787;DHT22;65739;51.482;5.702;2023-11-21T12:09:25;10.30;99.90
76787;DHT22;65739;51.482;5.702;2023-11-21T12:11:52;10.40;99.90
76787;DHT22;65739;51.482;5.702;2023-11-21T12:14:18;10.30;99.90
76787;DHT22;65739;51.482;5.702;2023-11-21T12:16:44;10.30;99.90
76787;DHT22;65739;51.482;5.702;2023-11-21T12:19:11;10.30;99.90
76787;DHT22;65739;51.482;5.702;2023-11-21T12:21:37;10.30;99.90
76787;DHT22;65739;51.482;5.702;2023-11-21T12:24:03;10.30;99.90
76787;DHT22;65739;51.482;5.702;2023-11-21T12:26:29;10.20;99.90
76787;DHT22;65739;51.482;5.702;2023-11-21T12:28:55;10.20;99.90
76787;DHT22;65739;51.482;5.702;2023-11-21T12:31:21;10.10;99.90
76787;DHT22;65739;51.482;5.702;2023-11-21T12:33:47;10.10;99.90
76787;DHT22;65739;51.482;5.702;2023-11-21T12:36:13;10.10;99.90
76787;DHT22;65739;51.482;5.702;2023-11-21T12:38:38;10.00;99.90
76787;DHT22;65739;51.482;5.702;2023-11-21T12:41:04;10.00;99.90
76787;DHT22;65739;51.482;5.702;2023-11-21T12:43:32;10.00;99.90
76787;DHT22;65739;51.482;5.702;2023-11-21T12:46:10;10.00;99.90
76787;DHT22;65739;51.482;5.702;2023-11-21T12:48:43;10.00;99.90
76787;DHT22;65739;51.482;5.702;2023-11-21T12:51:11;10.00;99.90
76787;DHT22;65739;51.482;5.702;2023-11-21T12:53:41;10.00;99.90
76787;DHT22;65739;51.482;5.702;2023-11-21T12:58:35;10.10;99.90
76787;DHT22;65739;51.482;5.702;2023-11-21T13:01:01;10.20;99.90
76787;DHT22;65739;51.482;5.702;2023-11-21T13:03:29;10.10;99.90
76787;DHT22;65739;51.482;5.702;2023-11-21T13:05:55;10.10;99.90
76787;DHT22;65739;51.482;5.702;2023-11-21T13:08:23;10.10;99.90
76787;DHT22;65739;51.482;5.702;2023-11-21T13:10:52;10.10;99.90
76787;DHT22;65739;51.482;5.702;2023-11-21T13:13:19;10.10;99.90
76787;DHT22;65739;51.482;5.702;2023-11-21T13:15:50;10.10;99.90
76787;DHT22;65739;51.482;5.702;2023-11-21T13:18:16;10.20;99.90
76787;DHT22;65739;51.482;5.702;2023-11-21T13:20:42;10.10;99.90
76787;DHT22;65739;51.482;5.702;2023-11-21T13:23:10;10.10;99.90
76787;DHT22;65739;51.482;5.702;2023-11-21T13:25:44;10.20;99.90
76787;DHT22;65739;51.482;5.702;2023-11-21T13:28:14;10.20;99.90
76787;DHT22;65739;51.482;5.702;2023-11-21T13:30:44;10.20;99.90
76787;DHT22;65739;51.482;5.702;2023-11-21T13:33:10;10.20;99.90
76787;DHT22;65739;51.482;5.702;2023-11-21T13:35:43;10.20;99.90
76787;DHT22;65739;51.482;5.702;2023-11-21T13:38:15;10.20;99.90
76787;DHT22;65739;51.482;5.702;2023-11-21T13:40:47;10.20;99.90
76787;DHT22;65739;51.482;5.702;2023-11-21T13:43:17;10.20;99.90
76787;DHT22;65739;51.482;5.702;2023-11-21T13:45:48;10.20;99.90
76787;DHT22;65739;51.482;5.702;2023-11-21T13:48:17;10.10;99.90
76787;DHT22;65739;51.482;5.702;2023-11-21T13:50:50;10.10;99.90
76787;DHT22;65739;51.482;5.702;2023-11-21T13:53:38;10.00;99.90
76787;DHT22;65739;51.482;5.702;2023-11-21T13:56:04;10.00;99.90
76787;DHT22;65739;51.482;5.702;2023-11-21T13:58:30;10.00;99.90
76787;DHT22;65739;51.482;5.702;2023-11-21T14:01:14;10.00;99.90
76787;DHT22;65739;51.482;5.702;2023-11-21T14:03:55;10.10;99.90
76787;DHT22;65739;51.482;5.702;2023-11-21T14:06:27;10.10;99.90
76787;DHT22;65739;51.482;5.702;2023-11-21T14:09:00;10.10;99.90
76787;DHT22;65739;51.482;5.702;2023-11-21T14:11:30;10.20;99.90
76787;DHT22;65739;51.482;5.702;2023-11-21T14:13:56;10.20;99.90
76787;DHT22;65739;51.482;5.702;2023-11-21T14:16:21;10.20;99.90
76787;DHT22;65739;51.482;5.702;2023-11-21T14:18:48;10.30;99.90
76787;DHT22;65739;51.482;5.702;2023-11-21T14:21:27;10.20;99.90
76787;DHT22;65739;51.482;5.702;2023-11-21T14:23:52;10.10;99.90
76787;DHT22;65739;51.482;5.702;2023-11-21T14:26:20;10.10;99.90
76787;DHT22;65739;51.482;5.702;2023-11-21T14:28:46;10.10;99.90
76787;DHT22;65739;51.482;5.702;2023-11-21T14:31:14;10.10;99.90
76787;DHT22;65739;51.482;5.702;2023-11-21T14:33:43;10.10;99.90
76787;DHT22;65739;51.482;5.702;2023-11-21T14:36:09;10.10;99.90
76787;DHT22;65739;51.482;5.702;2023-11-21T14:38:36;10.10;99.90
76787;DHT22;65739;51.482;5.702;2023-11-21T14:41:03;10.10;99.90
76787;DHT22;65739;51.482;5.702;2023-11-21T14:43:29;10.20;99.90
76787;DHT22;65739;51.482;5.702;2023-11-21T14:45:59;10.20;99.90
76787;DHT22;65739;51.482;5.702;2023-11-21T14:48:25;10.20;99.90
76787;DHT22;65739;51.482;5.702;2023-11-21T14:51:10;10.20;99.90
76787;DHT22;65739;51.482;5.702;2023-11-21T14:53:53;10.20;99.90
76787;DHT22;65739;51.482;5.702;2023-11-21T14:56:22;10.20;99.90
76787;DHT22;65739;51.482;5.702;2023-11-21T14:59:00;10.10;99.90
76787;DHT22;65739;51.482;5.702;2023-11-21T15:01:36;10.10;99.90
76787;DHT22;65739;51.482;5.702;2023-11-21T15:04:20;10.00;99.90
76787;DHT22;65739;51.482;5.702;2023-11-21T15:06:59;10.00;99.90
76787;DHT22;65739;51.482;5.702;2023-11-21T15:09:25;9.90;99.90
76787;DHT22;65739;51.482;5.702;2023-11-21T15:12:02;9.90;99.90
76787;DHT22;65739;51.482;5.702;2023-11-21T15:14:51;9.80;99.90
76787;DHT22;65739;51.482;5.702;2023-11-21T15:17:22;9.80;99.90
76787;DHT22;65739;51.482;5.702;2023-11-21T15:19:51;9.80;99.90
76787;DHT22;65739;51.482;5.702;2023-11-21T15:22:17;9.70;99.90
76787;DHT22;65739;51.482;5.702;2023-11-21T15:24:43;9.80;99.90
76787;DHT22;65739;51.482;5.702;2023-11-21T15:27:12;9.80;99.90
76787;DHT22;65739;51.482;5.702;2023-11-21T15:29:39;9.70;99.90
76787;DHT22;65739;51.482;5.702;2023-11-21T15:32:06;9.70;99.90
76787;DHT22;65739;51.482;5.702;2023-11-21T15:34:32;9.70;99.90
76787;DHT22;65739;51.482;5.702;2023-11-21T15:36:58;9.70;99.90
76787;DHT22;65739;51.482;5.702;2023-11-21T15:39:24;9.60;99.90
76787;DHT22;65739;51.482;5.702;2023-11-21T15:41:58;9.70;99.90
76787;DHT22;65739;51.482;5.702;2023-11-21T15:44:24;9.60;99.90
76787;DHT22;65739;51.482;5.702;2023-11-21T15:46:52;9.60;99.90
76787;DHT22;65739;51.482;5.702;2023-11-21T15:49:17;9.60;99.90
76787;DHT22;65739;51.482;5.702;2023-11-21T15:51:47;9.60;99.90
76787;DHT22;65739;51.482;5.702;2023-11-21T15:54:19;9.60;99.90
76787;DHT22;65739;51.482;5.702;2023-11-21T15:56:46;9.60;99.90
76787;DHT22;65739;51.482;5.702;2023-11-21T15:59:12;9.60;99.90
76787;DHT22;65739;51.482;5.702;2023-11-21T16:01:37;9.60;99.90
76787;DHT22;65739;51.482;5.702;2023-11-21T16:04:11;9.50;99.90
76787;DHT22;65739;51.482;5.702;2023-11-21T16:06:39;9.50;99.90